Big Flats, New York
Current Conditions -  °F | °C
As of 5:53 AM on Thursday 18 Dec 2014 (Local Time) from KELM Reporting Station
Overcast Overcast  
Wind Chill: 23°   Ceiling: 2600
Heat Index: 32°   Visibility: 10mi
Dew Point: 23°   Wind: 13mph
Humidity: 69%   Direction: 280°W
Pressure: 30.01"   Gusts: NA
Location:  42.14°N, 76.93°W
Report Text: KELM 181053Z 28011KT 10SM OVC026 00/M05 A3001 RMK AO2 SLP170 T00001050
Loading
Personal Weather Stations






























Interactive Weather Map New forecast layout! Learn more

10-Day Weather Forecast

Advertisements
Track Severe Weather on mobile